createdAt,value
2023-04-08T00:01:26.623Z,50326.78
2023-04-08T00:03:55.604Z,50331.18
2023-04-08T00:06:24.497Z,50321.58
2023-04-08T00:08:53.505Z,50323.98
2023-04-08T00:11:21.722Z,50320.38
2023-04-08T00:13:49.939Z,50322.79
2023-04-08T00:16:18.235Z,50325.18
2023-04-08T00:18:46.470Z,50323.18
2023-04-08T00:21:16.788Z,50330.78
2023-04-08T00:23:45.018Z,50334.78
2023-04-08T00:26:15.760Z,50330.38
2023-04-08T00:28:45.295Z,50336.78
2023-04-08T00:31:13.557Z,50305.99
2023-04-08T00:33:41.805Z,50320.38
2023-04-08T00:36:11.747Z,50350.38
2023-04-08T00:38:40.406Z,50321.18
2023-04-08T00:41:08.823Z,50340.78
2023-04-08T00:43:37.078Z,50327.58
2023-04-08T00:46:06.151Z,50323.98
2023-04-08T00:48:34.539Z,50328.78
2023-04-08T00:51:03.807Z,50314.79
2023-04-08T00:53:32.948Z,50333.18
2023-04-08T00:56:01.661Z,50336.38
2023-04-08T00:58:30.835Z,50340.38
2023-04-08T01:01:07.298Z,50325.98
2023-04-08T01:03:59.598Z,50311.19
2023-04-08T01:06:42.976Z,50323.18
2023-04-08T01:09:13.900Z,50333.58
2023-04-08T01:11:45.337Z,50328.78
2023-04-08T01:14:20.659Z,50333.18
2023-04-08T01:16:49.328Z,50321.18
2023-04-08T01:19:45.126Z,50337.18
2023-04-08T01:22:19.409Z,50326.38
2023-04-08T01:24:55.045Z,50345.98
2023-04-08T01:27:24.098Z,50348.77
2023-04-08T01:29:53.794Z,50321.98
2023-04-08T01:32:25.323Z,50325.58
2023-04-08T01:34:56.937Z,50307.99
2023-04-08T01:37:28.403Z,50343.18
2023-04-08T01:39:57.763Z,50330.78
2023-04-08T01:42:28.801Z,50353.57
2023-04-08T01:44:59.503Z,50331.98
2023-04-08T01:47:29.756Z,50345.18
2023-04-08T01:50:00.043Z,50337.98
2023-04-08T01:52:30.452Z,50325.98
2023-04-08T01:54:59.688Z,50319.98
2023-04-08T01:57:32.129Z,50312.79
2023-04-08T02:00:04.325Z,50329.98
2023-04-08T02:02:49.113Z,50317.98
2023-04-08T02:05:17.817Z,50316.79
2023-04-08T02:07:48.141Z,50321.58
2023-04-08T02:10:16.852Z,50320.38
2023-04-08T02:12:46.948Z,50307.59
2023-04-08T02:15:15.921Z,50314.79
2023-04-08T02:17:48.039Z,50327.98
2023-04-08T02:20:24.306Z,50326.79
2023-04-08T02:23:15.544Z,50330.38
2023-04-08T02:25:47.361Z,50307.99
2023-04-08T02:28:18.092Z,50326.78
2023-04-08T02:30:52.145Z,50321.59
2023-04-08T02:33:23.283Z,50309.18
2023-04-08T02:35:56.146Z,50321.18
2023-04-08T02:38:24.694Z,50324.79
2023-04-08T02:40:53.765Z,50311.98
2023-04-08T02:43:27.052Z,50326.38
2023-04-08T02:45:55.631Z,50321.18
2023-04-08T02:48:23.866Z,50333.58
2023-04-08T02:50:52.121Z,50335.98
2023-04-08T02:53:20.431Z,50324.79
2023-04-08T02:55:49.036Z,50318.79
2023-04-08T02:58:17.471Z,50319.98
2023-04-08T03:00:46.779Z,50314.78
2023-04-08T03:03:15.131Z,50324.38
2023-04-08T03:05:43.997Z,50319.18
2023-04-08T03:08:12.264Z,50316.38
2023-04-08T03:10:41.000Z,50310.38
2023-04-08T03:13:09.399Z,50315.18
2023-04-08T03:15:37.888Z,50320.79
2023-04-08T03:18:06.345Z,50315.99
2023-04-08T03:20:34.936Z,50325.58
2023-04-08T03:23:03.232Z,50316.79
2023-04-08T03:25:31.915Z,50321.18
2023-04-08T03:28:00.141Z,50325.58
2023-04-08T03:30:28.705Z,50339.57
2023-04-08T03:32:56.935Z,50323.18
2023-04-08T03:35:25.913Z,50313.99
2023-04-08T03:37:55.544Z,50334.78
2023-04-08T03:40:23.880Z,50321.18
2023-04-08T03:42:52.693Z,50351.57
2023-04-08T03:45:21.938Z,50316.79
2023-04-08T03:47:50.370Z,50334.38
2023-04-08T03:50:18.661Z,50315.59
2023-04-08T03:52:46.956Z,50335.98
2023-04-08T03:55:15.576Z,50338.38
2023-04-08T03:57:45.433Z,50317.18
2023-04-08T04:00:14.441Z,50318.78
2023-04-08T04:02:42.606Z,50332.78
2023-04-08T04:05:11.339Z,50313.98
2023-04-08T04:07:39.606Z,50318.38
2023-04-08T04:10:09.126Z,50333.58
2023-04-08T04:12:39.453Z,50320.79
2023-04-08T04:15:08.330Z,50325.58
2023-04-08T04:17:36.715Z,50321.98
2023-04-08T04:20:06.820Z,50324.38
2023-04-08T04:22:36.410Z,50313.18
2023-04-08T04:25:04.918Z,50303.59
2023-04-08T04:27:33.167Z,50323.98
2023-04-08T04:30:01.675Z,50335.18
2023-04-08T04:32:29.878Z,50327.98
2023-04-08T04:34:58.055Z,50315.98
2023-04-08T04:37:26.628Z,50309.19
2023-04-08T04:39:54.813Z,50318.79
2023-04-08T04:42:25.549Z,50325.98
2023-04-08T04:44:54.522Z,50316.38
2023-04-08T04:47:23.588Z,50318.38
2023-04-08T04:49:52.572Z,50309.19
2023-04-08T04:52:23.189Z,50303.99
2023-04-08T04:54:51.726Z,50301.99
2023-04-08T04:57:19.951Z,50304.79
2023-04-08T04:59:48.391Z,50305.59
2023-04-08T05:02:19.193Z,50289.99
2023-04-08T05:04:47.596Z,50301.99
2023-04-08T05:07:15.991Z,50289.59
2023-04-08T05:09:48.516Z,50287.99
2023-04-08T05:12:17.042Z,50285.20
2023-04-08T05:14:48.074Z,50295.19
2023-04-08T05:17:16.636Z,50285.20
2023-04-08T05:19:44.835Z,50279.60
2023-04-08T05:22:13.025Z,50276.00
2023-04-08T05:24:41.520Z,50266.40
2023-04-08T05:27:09.718Z,50282.40
2023-04-08T05:29:38.014Z,50264.40
2023-04-08T05:32:06.835Z,50278.80
2023-04-08T05:34:36.879Z,50265.20
2023-04-08T05:37:06.180Z,50266.40
2023-04-08T05:39:34.435Z,50274.80
2023-04-08T05:42:03.698Z,50264.80
2023-04-08T05:44:32.748Z,50262.41
2023-04-08T05:47:01.237Z,50269.20
2023-04-08T05:49:30.189Z,50243.61
2023-04-08T05:51:58.370Z,50263.60
2023-04-08T05:54:26.625Z,50261.20
2023-04-08T05:56:54.825Z,50248.80
2023-04-08T05:59:23.040Z,50238.01
2023-04-08T06:01:51.367Z,50241.61
2023-04-08T06:04:20.193Z,50238.01
2023-04-08T06:06:51.301Z,50246.41
2023-04-08T06:09:19.532Z,50224.82
2023-04-08T06:11:49.500Z,50233.61
2023-04-08T06:14:19.459Z,50235.21
2023-04-08T06:16:47.961Z,50225.21
2023-04-08T06:19:16.957Z,50235.61
2023-04-08T06:21:45.169Z,50237.61
2023-04-08T06:24:15.085Z,50243.61
2023-04-08T06:26:43.345Z,50242.81
2023-04-08T06:29:11.802Z,50228.82
2023-04-08T06:31:40.082Z,50218.42
2023-04-08T06:34:11.613Z,50232.81
2023-04-08T06:36:42.441Z,50233.61
2023-04-08T06:39:10.981Z,50224.41
2023-04-08T06:41:42.039Z,50234.41
2023-04-08T06:44:20.922Z,50226.41
2023-04-08T06:46:49.149Z,50228.41
2023-04-08T06:49:18.038Z,50209.62
2023-04-08T06:51:46.331Z,50217.22
2023-04-08T06:54:14.680Z,50222.01
2023-04-08T06:56:43.221Z,50216.81
2023-04-08T06:59:12.198Z,50213.62
2023-04-08T07:01:41.559Z,50234.41
2023-04-08T07:04:10.590Z,50212.82
2023-04-08T07:06:38.811Z,50221.62
2023-04-08T07:09:08.127Z,50232.81
2023-04-08T07:11:36.324Z,50234.81
2023-04-08T07:14:04.628Z,50225.21
2023-04-08T07:16:32.891Z,50217.22
2023-04-08T07:19:02.092Z,50235.61
2023-04-08T07:21:32.044Z,50213.62
2023-04-08T07:24:01.515Z,50201.63
2023-04-08T07:26:29.795Z,50218.02
2023-04-08T07:28:58.088Z,50225.62
2023-04-08T07:31:26.572Z,50212.02
2023-04-08T07:33:54.912Z,50232.02
2023-04-08T07:36:23.204Z,50228.81
2023-04-08T07:38:54.613Z,50217.21
2023-04-08T07:41:23.951Z,50207.62
2023-04-08T07:43:52.371Z,50212.82
2023-04-08T07:46:23.765Z,50204.02
2023-04-08T07:48:52.351Z,50227.62
2023-04-08T07:51:21.076Z,50200.02
2023-04-08T07:53:49.830Z,50199.23
2023-04-08T07:56:18.874Z,50185.23
2023-04-08T07:58:47.705Z,50184.43
2023-04-08T08:01:23.869Z,50195.63
2023-04-08T08:03:53.585Z,50200.82
2023-04-08T08:06:22.397Z,50173.23
2023-04-08T08:08:50.732Z,50194.02
2023-04-08T08:11:19.640Z,50205.22
2023-04-08T08:13:47.944Z,50182.03
2023-04-08T08:16:16.305Z,50188.43
2023-04-08T08:18:47.742Z,50201.23
2023-04-08T08:21:18.068Z,50189.23
2023-04-08T08:23:46.344Z,50192.83
2023-04-08T08:26:14.622Z,50186.43
2023-04-08T08:28:43.591Z,50179.23
2023-04-08T08:31:12.786Z,50182.83
2023-04-08T08:33:45.943Z,50196.43
2023-04-08T08:36:15.421Z,50189.23
2023-04-08T08:38:45.956Z,50190.83
2023-04-08T08:41:16.212Z,50195.23
2023-04-08T08:43:49.143Z,50179.23
2023-04-08T08:46:22.060Z,50194.43
2023-04-08T08:48:50.536Z,50202.82
2023-04-08T08:51:19.624Z,50194.02
2023-04-08T08:53:51.345Z,50202.02
2023-04-08T08:56:22.214Z,50190.82
2023-04-08T08:58:51.834Z,50216.42
2023-04-08T09:01:45.287Z,50206.82
2023-04-08T09:04:20.132Z,50192.43
2023-04-08T09:07:10.874Z,50191.63
2023-04-08T09:09:50.683Z,50188.83
2023-04-08T09:12:21.756Z,50204.82
2023-04-08T09:14:50.514Z,50183.63
2023-04-08T09:17:39.107Z,50184.83
2023-04-08T09:20:12.546Z,50194.82
2023-04-08T09:23:01.484Z,50190.03
2023-04-08T09:25:32.940Z,50174.43
2023-04-08T09:28:03.027Z,50178.83
2023-04-08T09:30:33.228Z,50184.43
2023-04-08T09:33:07.577Z,50186.03
2023-04-08T09:35:36.806Z,50194.03
2023-04-08T09:38:07.341Z,50182.43
2023-04-08T09:40:37.473Z,50178.03
2023-04-08T09:43:08.207Z,50184.83
2023-04-08T09:45:37.978Z,50194.43
2023-04-08T09:48:24.316Z,50200.82
2023-04-08T09:50:56.405Z,50210.42
2023-04-08T09:53:36.760Z,50188.83
2023-04-08T09:56:11.064Z,50182.03
2023-04-08T09:59:00.230Z,50191.23
2023-04-08T10:01:40.404Z,50198.42
2023-04-08T10:04:12.814Z,50185.23
2023-04-08T10:06:42.976Z,50174.83
2023-04-08T10:09:14.599Z,50172.84
2023-04-08T10:11:43.098Z,50178.83
2023-04-08T10:14:11.726Z,50178.83
2023-04-08T10:16:40.194Z,50170.43
2023-04-08T10:19:42.057Z,50168.44
2023-04-08T10:22:29.211Z,50194.02
2023-04-08T10:25:15.939Z,50181.23
2023-04-08T10:27:46.396Z,50190.02
2023-04-08T10:30:43.936Z,50172.03
2023-04-08T10:33:37.866Z,50184.43
2023-04-08T10:38:55.130Z,50174.43
2023-04-08T10:41:27.463Z,50172.84
2023-04-08T10:43:56.545Z,50171.23
2023-04-08T10:46:28.409Z,50181.63
2023-04-08T10:49:02.920Z,50180.43
2023-04-08T10:51:34.384Z,50182.43
2023-04-08T10:54:14.004Z,50161.24
2023-04-08T10:56:52.720Z,50183.23
2023-04-08T10:59:33.231Z,50182.83
2023-04-08T11:02:02.923Z,50178.43
2023-04-08T11:04:32.310Z,50194.42
2023-04-08T11:07:16.141Z,50182.43
2023-04-08T11:09:44.372Z,50181.23
2023-04-08T11:12:12.810Z,50178.04
2023-04-08T11:14:41.452Z,50202.02
2023-04-08T11:17:11.145Z,50188.03
2023-04-08T11:19:39.447Z,50195.23
2023-04-08T11:22:11.476Z,50184.43
2023-04-08T11:24:40.757Z,50194.43
2023-04-08T11:27:09.240Z,50197.62
2023-04-08T11:29:39.461Z,50186.02
2023-04-08T11:32:09.212Z,50186.83
2023-04-08T11:34:40.868Z,50206.42
2023-04-08T11:37:12.832Z,50200.02
2023-04-08T11:39:43.984Z,50190.82
2023-04-08T11:42:33.461Z,50215.62
2023-04-08T11:45:01.875Z,50189.23
2023-04-08T11:47:34.382Z,50192.03
2023-04-08T11:50:03.800Z,50182.03
2023-04-08T11:52:45.629Z,50187.23
2023-04-08T11:55:33.399Z,50201.23
2023-04-08T11:58:21.794Z,50185.23
2023-04-08T12:00:51.028Z,50192.43
2023-04-08T12:03:19.275Z,50194.83
2023-04-08T12:05:48.860Z,50201.22
2023-04-08T12:08:18.859Z,50198.02
2023-04-08T12:10:48.926Z,50178.83
2023-04-08T12:13:17.729Z,50184.83
2023-04-08T12:15:46.112Z,50187.23
2023-04-08T12:18:15.996Z,50207.62
2023-04-08T12:20:44.958Z,50186.83
2023-04-08T12:23:13.307Z,50202.43
2023-04-08T12:25:41.514Z,50187.63
2023-04-08T12:28:11.645Z,50198.82
2023-04-08T12:30:41.162Z,50192.43
2023-04-08T12:33:09.468Z,50216.02
2023-04-08T12:35:38.059Z,50224.82
2023-04-08T12:38:06.387Z,50200.82
2023-04-08T12:40:34.581Z,50194.82
2023-04-08T12:43:03.279Z,50192.43
2023-04-08T12:45:34.330Z,50195.63
2023-04-08T12:48:05.334Z,50185.63
2023-04-08T12:50:33.613Z,50183.63
2023-04-08T12:53:02.271Z,50206.02
2023-04-08T12:55:30.761Z,50210.82
2023-04-08T12:58:02.279Z,50197.63
2023-04-08T13:00:32.615Z,50181.23
2023-04-08T13:03:01.486Z,50194.83
2023-04-08T13:05:42.730Z,50189.63
2023-04-08T13:08:13.230Z,50180.83
2023-04-08T13:10:42.390Z,50190.43
2023-04-08T13:13:10.782Z,50187.23
2023-04-08T13:15:40.151Z,50190.43
2023-04-08T13:18:08.644Z,50190.83
2023-04-08T13:20:37.588Z,50201.22
2023-04-08T13:23:05.971Z,50206.02
2023-04-08T13:25:34.381Z,50187.23
2023-04-08T13:28:05.309Z,50200.02
2023-04-08T13:30:34.853Z,50190.43
2023-04-08T13:33:04.325Z,50169.23
2023-04-08T13:35:33.040Z,50194.02
2023-04-08T13:38:01.374Z,50203.62
2023-04-08T13:40:30.283Z,50216.82
2023-04-08T13:43:03.317Z,50209.22
2023-04-08T13:45:34.300Z,50211.62
2023-04-08T13:48:03.274Z,50211.22
2023-04-08T13:50:31.503Z,50216.82
2023-04-08T13:52:59.657Z,50210.02
2023-04-08T13:55:28.116Z,50218.02
2023-04-08T13:57:56.363Z,50202.02
2023-04-08T14:00:25.843Z,50206.82
2023-04-08T14:02:54.203Z,50212.82
2023-04-08T14:05:22.558Z,50212.42
2023-04-08T14:07:51.489Z,50220.42
2023-04-08T14:10:19.895Z,50193.63
2023-04-08T14:12:48.154Z,50195.23
2023-04-08T14:15:16.504Z,50201.63
2023-04-08T14:17:46.413Z,50213.22
2023-04-08T14:20:15.047Z,50218.02
2023-04-08T14:22:43.283Z,50207.22
2023-04-08T14:25:13.665Z,50205.22
2023-04-08T14:27:54.692Z,50176.43
2023-04-08T14:30:29.337Z,50196.82
2023-04-08T14:32:59.393Z,50207.62
2023-04-08T14:35:27.815Z,50187.23
2023-04-08T14:37:57.189Z,50189.63
2023-04-08T14:40:25.590Z,50202.43
2023-04-08T14:42:55.424Z,50194.82
2023-04-08T14:45:23.976Z,50203.23
2023-04-08T14:48:02.130Z,50188.43
2023-04-08T14:50:31.836Z,50204.42
2023-04-08T14:53:00.187Z,50204.02
2023-04-08T14:55:30.228Z,50180.83
2023-04-08T14:58:00.941Z,50199.63
2023-04-08T15:00:32.413Z,50200.02
2023-04-08T15:03:01.510Z,50204.02
2023-04-08T15:05:30.044Z,50211.62
2023-04-08T15:07:58.479Z,50206.82
2023-04-08T15:10:31.019Z,50198.82
2023-04-08T15:12:59.415Z,50210.42
2023-04-08T15:15:27.926Z,50215.62
2023-04-08T15:17:58.312Z,50211.22
2023-04-08T15:20:26.801Z,50196.42
2023-04-08T15:23:00.258Z,50203.62
2023-04-08T15:25:28.505Z,50214.02
2023-04-08T15:27:59.034Z,50213.62
2023-04-08T15:30:30.463Z,50214.02
2023-04-08T15:32:58.950Z,50202.02
2023-04-08T15:35:28.996Z,50214.82
2023-04-08T15:38:01.370Z,50213.62
2023-04-08T15:40:32.346Z,50206.82
2023-04-08T15:43:00.625Z,50207.62
2023-04-08T15:45:28.803Z,50207.62
2023-04-08T15:47:57.329Z,50207.22
2023-04-08T15:50:29.350Z,50213.62
2023-04-08T15:52:57.718Z,50221.62
2023-04-08T15:55:26.745Z,50216.02
2023-04-08T15:57:56.964Z,50207.62
2023-04-08T16:00:26.320Z,50214.82
2023-04-08T16:02:54.683Z,50215.62
2023-04-08T16:05:23.550Z,50218.82
2023-04-08T16:07:52.314Z,50210.42
2023-04-08T16:10:21.994Z,50222.41
2023-04-08T16:12:52.379Z,50215.22
2023-04-08T16:15:22.206Z,50218.82
2023-04-08T16:17:52.773Z,50222.82
2023-04-08T16:20:21.895Z,50218.42
2023-04-08T16:22:50.476Z,50216.41
2023-04-08T16:25:23.482Z,50231.61
2023-04-08T16:27:52.038Z,50223.21
2023-04-08T16:30:22.553Z,50249.61
2023-04-08T16:32:51.788Z,50251.61
2023-04-08T16:35:23.408Z,50256.01
2023-04-08T16:37:51.671Z,50246.41
2023-04-08T16:40:23.230Z,50248.01
2023-04-08T16:42:51.520Z,50258.80
2023-04-08T16:45:22.106Z,50247.61
2023-04-08T16:47:52.902Z,50244.01
2023-04-08T16:50:22.527Z,50255.21
2023-04-08T16:52:51.198Z,50263.60
2023-04-08T16:55:22.876Z,50252.41
2023-04-08T16:57:51.198Z,50266.01
2023-04-08T17:00:21.113Z,50267.60
2023-04-08T17:02:49.840Z,50268.01
2023-04-08T17:05:18.748Z,50263.60
2023-04-08T17:07:46.913Z,50267.60
2023-04-08T17:10:16.052Z,50263.60
2023-04-08T17:12:46.657Z,50265.61
2023-04-08T17:15:16.376Z,50272.80
2023-04-08T17:17:44.898Z,50266.80
2023-04-08T17:20:14.532Z,50280.39
2023-04-08T17:22:42.840Z,50278.40
2023-04-08T17:25:14.097Z,50294.79
2023-04-08T17:30:30.665Z,50297.19
2023-04-08T17:32:59.110Z,50276.80
2023-04-08T17:35:28.229Z,50282.80
2023-04-08T17:37:56.665Z,50285.20
2023-04-08T17:40:29.621Z,50276.00
2023-04-08T17:43:02.446Z,50297.20
2023-04-08T17:45:31.458Z,50266.00
2023-04-08T17:47:59.797Z,50284.40
2023-04-08T17:50:28.191Z,50280.39
2023-04-08T17:53:03.993Z,50273.20
2023-04-08T17:55:32.449Z,50290.39
2023-04-08T17:58:04.908Z,50286.39
2023-04-08T18:00:33.464Z,50289.20
2023-04-08T18:03:01.883Z,50291.99
2023-04-08T18:05:33.236Z,50287.59
2023-04-08T18:08:03.537Z,50272.40
2023-04-08T18:10:32.411Z,50279.59
2023-04-08T18:15:37.879Z,50291.59
2023-04-08T18:18:12.404Z,50278.00
2023-04-08T18:20:41.211Z,50295.59
2023-04-08T18:23:11.797Z,50277.60
2023-04-08T18:25:43.110Z,50279.60
2023-04-08T18:28:13.900Z,50281.20
2023-04-08T18:30:43.472Z,50280.40
2023-04-08T18:33:12.632Z,50288.39
2023-04-08T18:35:41.027Z,50293.59
2023-04-08T18:38:09.507Z,50303.59
2023-04-08T18:40:50.086Z,50286.79
2023-04-08T18:43:18.488Z,50293.99
2023-04-08T18:45:48.127Z,50280.40
2023-04-08T18:48:18.556Z,50288.79
2023-04-08T18:50:47.771Z,50283.20
2023-04-08T18:53:18.751Z,50290.79
2023-04-08T18:55:47.565Z,50284.79
2023-04-08T18:58:16.421Z,50291.99
2023-04-08T19:00:53.416Z,50303.59
2023-04-08T19:03:21.758Z,50301.19
2023-04-08T19:05:50.161Z,50293.59
2023-04-08T19:08:21.792Z,50297.99
2023-04-08T19:10:52.863Z,50307.59
2023-04-08T19:13:26.421Z,50290.79
2023-04-08T19:15:54.850Z,50297.99
2023-04-08T19:18:27.080Z,50313.59
2023-04-08T19:20:58.417Z,50305.99
2023-04-08T19:23:29.715Z,50321.98
2023-04-08T19:26:05.408Z,50303.19
2023-04-08T19:28:36.435Z,50300.39
2023-04-08T19:31:20.618Z,50306.79
2023-04-08T19:33:49.276Z,50307.99
2023-04-08T19:36:22.640Z,50309.19
2023-04-08T19:38:51.341Z,50308.79
2023-04-08T19:41:22.130Z,50299.59
2023-04-08T19:43:52.522Z,50299.59
2023-04-08T19:46:24.793Z,50313.19
2023-04-08T19:49:03.410Z,50331.98
2023-04-08T19:51:32.991Z,50322.78
2023-04-08T19:54:02.094Z,50298.79
2023-04-08T19:56:34.501Z,50327.98
2023-04-08T19:59:03.612Z,50327.98
2023-04-08T20:01:35.994Z,50304.79
2023-04-08T20:04:05.397Z,50303.99
2023-04-08T20:06:36.783Z,50299.99
2023-04-08T20:09:06.582Z,50323.59
2023-04-08T20:11:35.417Z,50298.39
2023-04-08T20:14:05.142Z,50288.79
2023-04-08T20:16:33.273Z,50326.38
2023-04-08T20:19:01.737Z,50317.59
2023-04-08T20:21:29.980Z,50310.39
2023-04-08T20:23:58.375Z,50305.19
2023-04-08T20:26:26.737Z,50305.59
2023-04-08T20:28:59.033Z,50318.38
2023-04-08T20:31:28.396Z,50321.18
2023-04-08T20:33:59.375Z,50313.98
2023-04-08T20:36:28.426Z,50315.98
2023-04-08T20:38:57.226Z,50321.98
2023-04-08T20:41:27.336Z,50313.99
2023-04-08T20:43:58.564Z,50313.59
2023-04-08T20:46:27.741Z,50320.79
2023-04-08T20:48:57.126Z,50309.19
2023-04-08T20:51:27.544Z,50334.38
2023-04-08T20:53:57.127Z,50325.58
2023-04-08T20:56:26.745Z,50298.79
2023-04-08T20:58:56.388Z,50323.58
2023-04-08T21:01:27.785Z,50316.79
2023-04-08T21:03:57.380Z,50319.98
2023-04-08T21:06:27.923Z,50327.98
2023-04-08T21:08:56.303Z,50325.59
2023-04-08T21:11:25.563Z,50325.18
2023-04-08T21:13:54.176Z,50305.59
2023-04-08T21:16:25.231Z,50321.59
2023-04-08T21:18:53.622Z,50325.58
2023-04-08T21:21:21.934Z,50324.79
2023-04-08T21:23:50.531Z,50312.79
2023-04-08T21:26:18.854Z,50327.58
2023-04-08T21:28:47.111Z,50321.58
2023-04-08T21:31:15.921Z,50331.18
2023-04-08T21:33:46.900Z,50327.98
2023-04-08T21:36:15.262Z,50310.79
2023-04-08T21:38:43.667Z,50306.39
2023-04-08T21:41:11.895Z,50311.19
2023-04-08T21:43:41.597Z,50329.18
2023-04-08T21:46:09.966Z,50323.98
2023-04-08T21:48:39.125Z,50309.59
2023-04-08T21:51:08.649Z,50320.78
2023-04-08T21:53:39.642Z,50308.39
2023-04-08T21:56:08.772Z,50321.59
2023-04-08T21:58:37.272Z,50319.18
2023-04-08T22:01:05.539Z,50326.38
2023-04-08T22:03:34.355Z,50311.59
2023-04-08T22:06:02.701Z,50313.58
2023-04-08T22:08:32.607Z,50300.39
2023-04-08T22:11:01.092Z,50325.58
2023-04-08T22:13:29.434Z,50321.98
2023-04-08T22:15:57.717Z,50323.18
2023-04-08T22:18:26.422Z,50319.98
2023-04-08T22:20:54.670Z,50330.38
2023-04-08T22:23:22.857Z,50313.18
2023-04-08T22:25:51.930Z,50321.59
2023-04-08T22:28:20.444Z,50312.79
2023-04-08T22:30:48.891Z,50322.78
2023-04-08T22:33:18.216Z,50309.19
2023-04-08T22:35:46.455Z,50329.18
2023-04-08T22:38:15.868Z,50316.79
2023-04-08T22:40:44.051Z,50321.18
2023-04-08T22:43:12.246Z,50315.59
2023-04-08T22:45:40.733Z,50330.38
2023-04-08T22:48:09.047Z,50319.18
2023-04-08T22:50:37.386Z,50324.38
2023-04-08T22:53:05.678Z,50329.58
2023-04-08T22:55:33.980Z,50326.78
2023-04-08T22:58:02.433Z,50328.78
2023-04-08T23:00:31.041Z,50328.38
2023-04-08T23:02:59.363Z,50314.38
2023-04-08T23:05:27.622Z,50319.59
2023-04-08T23:07:56.008Z,50324.38
2023-04-08T23:10:24.182Z,50323.58
2023-04-08T23:12:52.608Z,50332.78
2023-04-08T23:15:20.861Z,50341.18
2023-04-08T23:17:49.188Z,50337.18
2023-04-08T23:20:17.560Z,50332.38
2023-04-08T23:22:46.566Z,50348.77
2023-04-08T23:25:15.015Z,50337.98
2023-04-08T23:27:46.085Z,50329.18
2023-04-08T23:30:15.653Z,50329.18
2023-04-08T23:32:43.902Z,50340.78
2023-04-08T23:35:12.179Z,50337.58
2023-04-08T23:37:40.568Z,50329.98
2023-04-08T23:40:09.616Z,50328.38
2023-04-08T23:42:37.782Z,50341.57
2023-04-08T23:45:06.597Z,50338.38
2023-04-08T23:47:37.656Z,50343.98
2023-04-08T23:50:07.358Z,50331.18
2023-04-08T23:52:36.098Z,50323.18
2023-04-08T23:55:04.471Z,50335.58
2023-04-08T23:57:32.651Z,50331.98
